createdAt,value
2022-10-15T00:01:31.682Z,98148.50
2022-10-15T00:06:30.151Z,98157.97
2022-10-15T00:08:58.218Z,98148.66
2022-10-15T00:11:28.387Z,98150.06
2022-10-15T00:13:58.494Z,98142.13
2022-10-15T00:16:29.569Z,98146.25
2022-10-15T00:18:58.487Z,98144.53
2022-10-15T00:21:26.908Z,98143.81
2022-10-15T00:23:55.088Z,98144.63
2022-10-15T00:26:25.426Z,98146.16
2022-10-15T00:28:55.564Z,98139.41
2022-10-15T00:31:24.702Z,98141.09
2022-10-15T00:33:55.841Z,98142.31
2022-10-15T00:36:25.564Z,98127.75
2022-10-15T00:38:54.471Z,98127.44
2022-10-15T00:41:24.474Z,98124.09
2022-10-15T00:43:54.174Z,98119.63
2022-10-15T00:46:25.804Z,98121.81
2022-10-15T00:48:58.761Z,98118.59
2022-10-15T00:51:30.991Z,98111.41
2022-10-15T00:53:59.085Z,98123.97
2022-10-15T00:56:28.576Z,98121.97
2022-10-15T00:58:57.483Z,98108.53
2022-10-15T01:01:26.518Z,98112.78
2022-10-15T01:03:56.982Z,98113.75
2022-10-15T01:06:26.129Z,98104.81
2022-10-15T01:08:54.333Z,98111.47
2022-10-15T01:11:32.172Z,98110.63
2022-10-15T01:14:05.046Z,98102.59
2022-10-15T01:16:37.688Z,98098.81
2022-10-15T01:19:11.567Z,98097.28
2022-10-15T01:21:45.708Z,98088.06
2022-10-15T01:24:38.316Z,98089.66
2022-10-15T01:27:31.698Z,98085.78
2022-10-15T01:30:20.642Z,98089.84
2022-10-15T01:33:04.495Z,98088.94
2022-10-15T01:35:38.867Z,98079.25
2022-10-15T01:38:12.316Z,98075.75
2022-10-15T01:40:46.084Z,98080.94
2022-10-15T01:43:17.293Z,98086.63
2022-10-15T01:45:49.118Z,98085.53
2022-10-15T01:48:19.060Z,98085.81
2022-10-15T01:50:49.864Z,98069.22
2022-10-15T01:53:26.539Z,98072.16
2022-10-15T01:55:56.059Z,98068.53
2022-10-15T01:58:25.284Z,98072.44
2022-10-15T02:00:55.980Z,98063.00
2022-10-15T02:03:24.272Z,98068.09
2022-10-15T02:05:56.677Z,98072.59
2022-10-15T02:08:37.312Z,98070.16
2022-10-15T02:11:08.420Z,98064.91
2022-10-15T02:13:43.529Z,98066.94
2022-10-15T02:16:15.711Z,98072.69
2022-10-15T02:18:48.276Z,98060.50
2022-10-15T02:21:19.144Z,98053.41
2022-10-15T02:23:54.287Z,98057.44
2022-10-15T02:26:25.597Z,98057.78
2022-10-15T02:28:56.263Z,98047.31
2022-10-15T02:31:26.659Z,98048.53
2022-10-15T02:33:57.024Z,98054.28
2022-10-15T02:36:25.712Z,98046.38
2022-10-15T02:38:56.255Z,98046.44
2022-10-15T02:41:24.528Z,98038.44
2022-10-15T02:43:52.863Z,98039.84
2022-10-15T02:46:21.244Z,98035.16
2022-10-15T02:48:50.849Z,98034.63
2022-10-15T02:51:19.283Z,98037.38
2022-10-15T02:53:47.507Z,98020.00
2022-10-15T02:56:16.080Z,98011.19
2022-10-15T02:58:44.439Z,98009.47
2022-10-15T03:01:12.642Z,98016.75
2022-10-15T03:03:40.797Z,98007.88
2022-10-15T03:06:10.460Z,98015.22
2022-10-15T03:08:38.855Z,98017.75
2022-10-15T03:11:06.982Z,98017.47
2022-10-15T03:13:36.933Z,98016.34
2022-10-15T03:16:05.875Z,98006.34
2022-10-15T03:18:36.826Z,98007.25
2022-10-15T03:21:08.158Z,98000.59
2022-10-15T03:23:37.846Z,97994.84
2022-10-15T03:26:06.254Z,97994.09
2022-10-15T03:28:34.810Z,97984.94
2022-10-15T03:31:02.921Z,97991.50
2022-10-15T03:33:31.040Z,97988.19
2022-10-15T03:35:59.415Z,97993.56
2022-10-15T03:38:27.811Z,97992.66
2022-10-15T03:40:57.281Z,97987.94
2022-10-15T03:43:26.469Z,97988.34
2022-10-15T03:45:54.827Z,97989.88
2022-10-15T03:48:22.992Z,97988.34
2022-10-15T03:50:51.319Z,97979.34
2022-10-15T03:53:19.470Z,97981.00
2022-10-15T03:55:47.641Z,97980.63
2022-10-15T03:58:17.343Z,97982.91
2022-10-15T04:00:46.465Z,97973.91
2022-10-15T04:03:15.411Z,97985.22
2022-10-15T04:05:43.834Z,97980.47
2022-10-15T04:08:11.951Z,97979.34
2022-10-15T04:10:40.300Z,97985.13
2022-10-15T04:13:08.679Z,97983.34
2022-10-15T04:15:40.265Z,97987.66
2022-10-15T04:18:08.367Z,97976.38
2022-10-15T04:20:36.741Z,97971.16
2022-10-15T04:23:05.015Z,97971.88
2022-10-15T04:25:33.065Z,97973.50
2022-10-15T04:28:01.366Z,97969.31
2022-10-15T04:30:29.524Z,97961.25
2022-10-15T04:32:59.077Z,97963.94
2022-10-15T04:35:27.576Z,97958.75
2022-10-15T04:37:55.891Z,97963.03
2022-10-15T04:40:24.390Z,97958.53
2022-10-15T04:42:52.704Z,97970.78
2022-10-15T04:45:21.080Z,97960.38
2022-10-15T04:47:49.456Z,97963.50
2022-10-15T04:50:19.091Z,97964.34
2022-10-15T04:52:48.681Z,97961.97
2022-10-15T04:55:16.972Z,97953.44
2022-10-15T04:57:45.346Z,97957.63
2022-10-15T05:00:14.906Z,97957.69
2022-10-15T05:02:43.762Z,97961.88
2022-10-15T05:05:12.015Z,97959.44
2022-10-15T05:07:41.757Z,97958.09
2022-10-15T05:10:10.107Z,97965.91
2022-10-15T05:12:38.550Z,97961.19
2022-10-15T05:15:07.754Z,97958.03
2022-10-15T05:17:35.980Z,97963.28
2022-10-15T05:20:04.827Z,97960.25
2022-10-15T05:22:32.999Z,97959.78
2022-10-15T05:25:02.699Z,97962.13
2022-10-15T05:27:31.204Z,97963.03
2022-10-15T05:29:59.401Z,97954.41
2022-10-15T05:32:27.479Z,97954.44
2022-10-15T05:34:55.968Z,97943.16
2022-10-15T05:37:25.463Z,97950.88
2022-10-15T05:39:54.120Z,97951.31
2022-10-15T05:42:23.794Z,97948.31
2022-10-15T05:44:51.966Z,97952.59
2022-10-15T05:47:20.166Z,97953.09
2022-10-15T05:49:48.671Z,97954.06
2022-10-15T05:52:17.051Z,97957.22
2022-10-15T05:54:45.293Z,97954.69
2022-10-15T05:57:13.659Z,97959.38
2022-10-15T05:59:43.188Z,97964.84
2022-10-15T06:02:16.074Z,97962.72
2022-10-15T06:04:44.575Z,97963.31
2022-10-15T06:07:12.682Z,97957.91
2022-10-15T06:09:40.905Z,97963.13
2022-10-15T06:12:09.318Z,97959.44
2022-10-15T06:14:37.410Z,97969.56
2022-10-15T06:17:06.876Z,97968.81
2022-10-15T06:19:35.475Z,97965.56
2022-10-15T06:22:03.596Z,97973.00
2022-10-15T06:24:31.646Z,97966.22
2022-10-15T06:27:00.503Z,97972.25
2022-10-15T06:29:28.926Z,97971.28
2022-10-15T06:31:56.961Z,97966.84
2022-10-15T06:34:26.720Z,97971.81
2022-10-15T06:36:54.908Z,97966.00
2022-10-15T06:39:23.062Z,97975.69
2022-10-15T06:41:51.306Z,97968.41
2022-10-15T06:44:19.469Z,97974.13
2022-10-15T06:46:47.672Z,97978.78
2022-10-15T06:49:16.021Z,97976.00
2022-10-15T06:51:45.642Z,97979.75
2022-10-15T06:54:13.841Z,97979.69
2022-10-15T06:56:42.164Z,97987.25
2022-10-15T06:59:10.264Z,97985.13
2022-10-15T07:01:41.385Z,97990.53
2022-10-15T07:04:10.761Z,97984.47
2022-10-15T07:06:39.007Z,97988.44
2022-10-15T07:09:08.461Z,97994.81
2022-10-15T07:11:36.999Z,97989.81
2022-10-15T07:14:05.099Z,97992.66
2022-10-15T07:16:33.253Z,97993.00
2022-10-15T07:19:01.667Z,97991.81
2022-10-15T07:21:29.766Z,98001.78
2022-10-15T07:23:59.451Z,97999.34
2022-10-15T07:26:31.100Z,98006.00
2022-10-15T07:28:59.105Z,98008.88
2022-10-15T07:31:27.271Z,98014.63
2022-10-15T07:33:55.602Z,98012.13
2022-10-15T07:36:23.910Z,98002.66
2022-10-15T07:38:51.957Z,98005.84
2022-10-15T07:41:20.421Z,98006.84
2022-10-15T07:43:52.874Z,98008.53
2022-10-15T07:46:21.345Z,98000.84
2022-10-15T07:48:49.469Z,97999.25
2022-10-15T07:53:50.785Z,98000.84
2022-10-15T07:56:19.300Z,98003.19
2022-10-15T07:58:51.873Z,98005.97
2022-10-15T08:01:22.529Z,98011.34
2022-10-15T08:03:50.628Z,98009.63
2022-10-15T08:06:19.240Z,98022.41
2022-10-15T08:08:47.834Z,98016.84
2022-10-15T08:11:17.690Z,98017.41
2022-10-15T08:13:48.216Z,98013.97
2022-10-15T08:16:19.606Z,98021.59
2022-10-15T08:18:49.312Z,98015.16
2022-10-15T08:21:17.506Z,98017.56
2022-10-15T08:23:45.982Z,98014.94
2022-10-15T08:26:14.293Z,98010.03
2022-10-15T08:28:42.735Z,98004.25
2022-10-15T08:31:11.057Z,98005.94
2022-10-15T08:33:39.467Z,98004.94
2022-10-15T08:36:09.523Z,98006.75
2022-10-15T08:38:37.678Z,98012.97
2022-10-15T08:41:12.931Z,98010.84
2022-10-15T08:43:42.431Z,98000.22
2022-10-15T08:46:13.737Z,98008.16
2022-10-15T08:48:45.259Z,98013.31
2022-10-15T08:51:18.487Z,98021.09
2022-10-15T08:53:49.659Z,98020.22
2022-10-15T08:56:18.729Z,98019.25
2022-10-15T08:58:52.924Z,98019.63
2022-10-15T09:01:27.220Z,98030.00
2022-10-15T09:04:03.311Z,98027.41
2022-10-15T09:06:35.847Z,98026.88
2022-10-15T09:09:08.779Z,98020.78
2022-10-15T09:11:43.606Z,98027.75
2022-10-15T09:14:16.276Z,98027.63
2022-10-15T09:16:47.638Z,98021.28
2022-10-15T09:19:18.047Z,98031.00
2022-10-15T09:21:49.121Z,98027.63
2022-10-15T09:24:22.283Z,98024.03
2022-10-15T09:27:02.370Z,98020.72
2022-10-15T09:29:33.944Z,98020.31
2022-10-15T09:32:10.964Z,98017.47
2022-10-15T09:34:41.994Z,98017.00
2022-10-15T09:37:13.163Z,98030.28
2022-10-15T09:39:48.679Z,98025.03
2022-10-15T09:42:27.328Z,98045.56
2022-10-15T09:44:56.305Z,98028.31
2022-10-15T09:47:26.484Z,98030.72
2022-10-15T09:49:54.754Z,98031.84
2022-10-15T09:52:31.543Z,98027.91
2022-10-15T09:55:05.733Z,98030.72
2022-10-15T09:57:36.131Z,98028.31
2022-10-15T10:00:08.704Z,98022.69
2022-10-15T10:02:37.369Z,98020.44
2022-10-15T10:05:21.426Z,98030.31
2022-10-15T10:07:51.171Z,98023.38
2022-10-15T10:10:29.585Z,98028.28
2022-10-15T10:12:58.135Z,98020.09
2022-10-15T10:15:33.181Z,98033.50
2022-10-15T10:18:02.277Z,98030.31
2022-10-15T10:20:31.056Z,98037.97
2022-10-15T10:23:02.304Z,98034.72
2022-10-15T10:25:33.740Z,98043.56
2022-10-15T10:28:07.194Z,98033.09
2022-10-15T10:30:37.624Z,98044.31
2022-10-15T10:33:06.516Z,98042.66
2022-10-15T10:35:38.132Z,98038.66
2022-10-15T10:38:07.816Z,98041.81
2022-10-15T10:40:37.239Z,98041.81
2022-10-15T10:43:13.540Z,98051.09
2022-10-15T10:45:53.964Z,98044.25
2022-10-15T10:48:23.901Z,98053.75
2022-10-15T10:51:06.123Z,98051.06
2022-10-15T10:53:43.517Z,98052.19
2022-10-15T10:56:13.702Z,98052.81
2022-10-15T10:58:42.669Z,98048.81
2022-10-15T11:01:13.877Z,98050.63
2022-10-15T11:03:44.041Z,98046.53
2022-10-15T11:06:39.772Z,98041.53
2022-10-15T11:09:16.556Z,98035.06
2022-10-15T11:11:54.341Z,98033.53
2022-10-15T11:14:31.348Z,98032.69
2022-10-15T11:17:03.577Z,98032.28
2022-10-15T11:20:05.743Z,98036.34
2022-10-15T11:22:43.471Z,98034.72
2022-10-15T11:25:22.540Z,98032.75
2022-10-15T11:28:08.547Z,98031.50
2022-10-15T11:30:43.985Z,98035.13
2022-10-15T11:33:23.009Z,98034.66
2022-10-15T11:35:56.318Z,98030.69
2022-10-15T11:38:30.463Z,98033.94
2022-10-15T11:41:11.477Z,98038.75
2022-10-15T11:43:52.747Z,98036.34
2022-10-15T11:46:26.866Z,98035.97
2022-10-15T11:49:05.648Z,98022.66
2022-10-15T11:51:42.723Z,98039.47
2022-10-15T11:54:18.984Z,98041.84
2022-10-15T11:56:50.223Z,98043.38
2022-10-15T11:59:28.541Z,98030.41
2022-10-15T12:02:00.857Z,98020.41
2022-10-15T12:04:34.439Z,98029.03
2022-10-15T12:07:04.497Z,98024.94
2022-10-15T12:09:36.694Z,98027.06
2022-10-15T12:12:10.972Z,98021.06
2022-10-15T12:14:43.492Z,98033.91
2022-10-15T12:17:17.730Z,98034.25
2022-10-15T12:19:50.146Z,98036.31
2022-10-15T12:22:34.946Z,98031.16
2022-10-15T12:25:03.319Z,98014.34
2022-10-15T12:27:35.611Z,98018.03
2022-10-15T12:30:26.909Z,98019.81
2022-10-15T12:32:55.001Z,98023.09
2022-10-15T12:35:35.198Z,98011.69
2022-10-15T12:38:20.278Z,98001.78
2022-10-15T12:40:48.609Z,98009.81
2022-10-15T12:43:21.464Z,97995.66
2022-10-15T12:45:54.301Z,98000.84
2022-10-15T12:48:31.815Z,98003.25
2022-10-15T12:51:40.069Z,98016.25
2022-10-15T12:54:33.802Z,97997.81
2022-10-15T12:57:04.970Z,98006.88
2022-10-15T12:59:47.868Z,98003.84
2022-10-15T13:05:26.823Z,98005.03
2022-10-15T13:07:56.146Z,98000.00
2022-10-15T13:10:28.173Z,98007.28
2022-10-15T13:12:59.962Z,98010.06
2022-10-15T13:15:30.046Z,98008.09
2022-10-15T13:18:01.613Z,98013.41
2022-10-15T13:20:36.084Z,98001.78
2022-10-15T13:23:28.857Z,98007.38
2022-10-15T13:26:18.718Z,98008.13
2022-10-15T13:28:47.477Z,98004.59
2022-10-15T13:31:22.604Z,97997.53
2022-10-15T13:33:56.935Z,97999.78
2022-10-15T13:36:27.139Z,97995.06
2022-10-15T13:38:59.590Z,98010.78
2022-10-15T13:41:30.154Z,98006.47
2022-10-15T13:44:01.216Z,97997.84
2022-10-15T13:46:32.128Z,98002.75
2022-10-15T13:49:03.513Z,97996.00
2022-10-15T13:51:41.100Z,98005.69
2022-10-15T13:54:12.207Z,98009.63
2022-10-15T13:56:47.884Z,98013.22
2022-10-15T13:59:20.313Z,98013.56
2022-10-15T14:01:49.956Z,98017.38
2022-10-15T14:04:21.148Z,98020.13
2022-10-15T14:07:02.041Z,98005.97
2022-10-15T14:09:33.024Z,98011.84
2022-10-15T14:12:03.127Z,98018.53
2022-10-15T14:14:34.347Z,98017.44
2022-10-15T14:17:04.713Z,98013.41
2022-10-15T14:19:35.293Z,98005.88
2022-10-15T14:22:03.949Z,98024.66
2022-10-15T14:24:34.425Z,98006.63
2022-10-15T14:27:06.009Z,98024.63
2022-10-15T14:29:37.992Z,98018.63
2022-10-15T14:32:21.221Z,98022.34
2022-10-15T14:34:51.214Z,98023.66
2022-10-15T14:37:33.842Z,98017.28
2022-10-15T14:40:15.967Z,98021.16
2022-10-15T14:42:46.193Z,98027.03
2022-10-15T14:45:20.295Z,98022.66
2022-10-15T14:47:50.454Z,98018.41
2022-10-15T14:50:20.734Z,98009.22
2022-10-15T14:52:51.825Z,98021.25
2022-10-15T14:55:33.224Z,98011.78
2022-10-15T14:58:03.408Z,98016.13
2022-10-15T15:00:34.144Z,98019.03
2022-10-15T15:03:05.417Z,98021.84
2022-10-15T15:05:45.788Z,98027.69
2022-10-15T15:08:14.205Z,98031.06
2022-10-15T15:10:42.673Z,98027.47
2022-10-15T15:13:12.595Z,98028.06
2022-10-15T15:15:41.453Z,98025.75
2022-10-15T15:18:10.654Z,98025.31
2022-10-15T15:20:41.523Z,98024.28
2022-10-15T15:23:11.498Z,98029.28
2022-10-15T15:25:41.088Z,98028.75
2022-10-15T15:28:14.027Z,98025.09
2022-10-15T15:30:43.839Z,98028.28
2022-10-15T15:33:12.762Z,98033.22
2022-10-15T15:35:50.843Z,98037.56
2022-10-15T15:38:19.799Z,98043.19
2022-10-15T15:40:48.243Z,98035.66
2022-10-15T15:43:18.155Z,98036.97
2022-10-15T15:45:47.803Z,98035.25
2022-10-15T15:48:17.074Z,98040.88
2022-10-15T15:50:47.632Z,98034.66
2022-10-15T15:53:16.090Z,98038.91
2022-10-15T15:55:44.331Z,98045.28
2022-10-15T15:58:13.206Z,98039.19
2022-10-15T16:00:41.306Z,98033.16
2022-10-15T16:03:10.374Z,98048.16
2022-10-15T16:05:40.874Z,98048.16
2022-10-15T16:08:12.273Z,98046.75
2022-10-15T16:10:40.455Z,98055.03
2022-10-15T16:13:08.920Z,98057.50
2022-10-15T16:15:37.018Z,98064.50
2022-10-15T16:18:05.505Z,98073.09
2022-10-15T16:20:35.873Z,98076.78
2022-10-15T16:23:04.518Z,98072.34
2022-10-15T16:25:33.955Z,98076.81
2022-10-15T16:28:02.436Z,98074.28
2022-10-15T16:30:30.774Z,98075.91
2022-10-15T16:32:59.467Z,98070.72
2022-10-15T16:35:27.634Z,98087.97
2022-10-15T16:37:56.330Z,98092.69
2022-10-15T16:40:24.512Z,98099.03
2022-10-15T16:42:54.169Z,98093.22
2022-10-15T16:45:22.724Z,98106.59
2022-10-15T16:47:51.005Z,98108.09
2022-10-15T16:50:19.421Z,98097.41
2022-10-15T16:52:47.762Z,98096.84
2022-10-15T16:55:16.863Z,98096.53
2022-10-15T16:57:45.394Z,98102.72
2022-10-15T17:00:15.486Z,98101.53
2022-10-15T17:02:43.915Z,98125.00
2022-10-15T17:05:12.398Z,98128.44
2022-10-15T17:07:41.421Z,98125.81
2022-10-15T17:10:13.889Z,98127.56
2022-10-15T17:12:43.327Z,98126.06
2022-10-15T17:15:12.315Z,98132.25
2022-10-15T17:17:41.918Z,98135.50
2022-10-15T17:20:11.199Z,98134.16
2022-10-15T17:22:39.649Z,98130.25
2022-10-15T17:25:08.273Z,98126.91
2022-10-15T17:27:36.708Z,98138.22
2022-10-15T17:30:05.758Z,98138.09
2022-10-15T17:32:34.310Z,98138.81
2022-10-15T17:35:04.626Z,98140.69
2022-10-15T17:40:03.200Z,98139.28
2022-10-15T17:42:31.611Z,98136.94
2022-10-15T17:44:59.902Z,98150.91
2022-10-15T17:47:28.699Z,98147.25
2022-10-15T17:49:57.250Z,98152.38
2022-10-15T17:52:27.077Z,98146.69
2022-10-15T17:54:55.463Z,98142.84
2022-10-15T17:57:24.139Z,98150.22
2022-10-15T17:59:52.473Z,98138.59
2022-10-15T18:02:20.842Z,98143.53
2022-10-15T18:04:49.171Z,98147.75
2022-10-15T18:07:19.947Z,98147.53
2022-10-15T18:09:50.079Z,98152.44
2022-10-15T18:12:18.568Z,98151.03
2022-10-15T18:14:46.999Z,98160.78
2022-10-15T18:17:15.453Z,98160.41
2022-10-15T18:19:44.144Z,98171.44
2022-10-15T18:22:13.038Z,98174.09
2022-10-15T18:24:41.219Z,98184.25
2022-10-15T18:27:10.976Z,98184.50
2022-10-15T18:29:39.929Z,98183.16
2022-10-15T18:32:08.964Z,98185.13
2022-10-15T18:34:37.094Z,98185.19
2022-10-15T18:37:05.506Z,98190.13
2022-10-15T18:39:33.877Z,98202.47
2022-10-15T18:42:02.185Z,98198.78
2022-10-15T18:44:33.399Z,98200.78
2022-10-15T18:47:01.721Z,98206.56
2022-10-15T18:49:29.945Z,98203.50
2022-10-15T18:52:00.421Z,98208.56
2022-10-15T18:54:36.521Z,98204.25
2022-10-15T18:57:05.138Z,98194.25
2022-10-15T18:59:34.809Z,98199.38
2022-10-15T19:02:03.270Z,98196.16
2022-10-15T19:04:31.411Z,98194.56
2022-10-15T19:07:02.409Z,98192.94
2022-10-15T19:09:30.576Z,98195.38
2022-10-15T19:11:59.420Z,98203.66
2022-10-15T19:14:29.259Z,98198.94
2022-10-15T19:16:59.031Z,98201.50
2022-10-15T19:19:27.482Z,98209.38
2022-10-15T19:21:56.561Z,98211.59
2022-10-15T19:24:25.150Z,98210.06
2022-10-15T19:26:53.709Z,98215.53
2022-10-15T19:29:22.166Z,98205.03
2022-10-15T19:31:51.023Z,98213.97
2022-10-15T19:34:22.721Z,98217.69
2022-10-15T19:36:51.697Z,98224.09
2022-10-15T19:39:21.294Z,98224.03
2022-10-15T19:41:50.543Z,98212.38
2022-10-15T19:44:25.278Z,98215.59
2022-10-15T19:46:54.493Z,98221.72
2022-10-15T19:49:24.589Z,98211.81
2022-10-15T19:51:52.997Z,98218.56
2022-10-15T19:54:21.286Z,98222.78
2022-10-15T19:56:49.691Z,98219.69
2022-10-15T19:59:18.297Z,98222.09
2022-10-15T20:01:46.599Z,98224.81
2022-10-15T20:04:14.809Z,98225.81
2022-10-15T20:06:45.029Z,98227.31
2022-10-15T20:09:13.379Z,98227.00
2022-10-15T20:11:41.919Z,98238.59
2022-10-15T20:14:10.267Z,98238.03
2022-10-15T20:16:39.171Z,98237.59
2022-10-15T20:19:07.556Z,98248.59
2022-10-15T20:21:35.871Z,98253.16
2022-10-15T20:24:05.749Z,98255.03
2022-10-15T20:26:34.533Z,98257.50
2022-10-15T20:29:03.161Z,98252.06
2022-10-15T20:31:34.994Z,98254.34
2022-10-15T20:34:04.126Z,98260.56
2022-10-15T20:36:32.933Z,98259.06
2022-10-15T20:39:01.747Z,98260.53
2022-10-15T20:41:31.468Z,98258.41
2022-10-15T20:44:00.000Z,98263.22
2022-10-15T20:46:31.480Z,98269.63
2022-10-15T20:49:06.054Z,98256.00
2022-10-15T20:51:38.480Z,98270.22
2022-10-15T20:54:06.788Z,98267.06
2022-10-15T20:56:36.678Z,98275.84
2022-10-15T20:59:05.459Z,98268.56
2022-10-15T21:01:34.540Z,98270.19
2022-10-15T21:04:03.137Z,98276.13
2022-10-15T21:06:31.616Z,98277.56
2022-10-15T21:08:59.819Z,98281.59
2022-10-15T21:11:28.396Z,98284.06
2022-10-15T21:13:58.024Z,98288.47
2022-10-15T21:16:28.572Z,98285.56
2022-10-15T21:18:56.873Z,98288.84
2022-10-15T21:21:25.333Z,98293.63
2022-10-15T21:23:53.477Z,98303.91
2022-10-15T21:26:22.056Z,98295.19
2022-10-15T21:28:55.349Z,98289.22
2022-10-15T21:31:25.821Z,98293.09
2022-10-15T21:33:54.724Z,98301.81
2022-10-15T21:36:26.131Z,98302.91
2022-10-15T21:38:55.089Z,98297.47
2022-10-15T21:41:23.613Z,98299.94
2022-10-15T21:43:51.790Z,98312.66
2022-10-15T21:46:20.230Z,98308.69
2022-10-15T21:48:49.724Z,98309.19
2022-10-15T21:51:19.733Z,98316.81
2022-10-15T21:53:48.652Z,98313.34
2022-10-15T21:56:17.065Z,98313.53
2022-10-15T21:58:45.352Z,98311.97
2022-10-15T22:01:17.125Z,98317.59
2022-10-15T22:03:49.628Z,98312.53
2022-10-15T22:06:18.585Z,98321.16
2022-10-15T22:08:47.017Z,98309.09
2022-10-15T22:11:17.390Z,98315.44
2022-10-15T22:13:46.996Z,98306.16
2022-10-15T22:16:15.863Z,98310.00
2022-10-15T22:18:44.266Z,98311.28
2022-10-15T22:21:16.278Z,98317.66
2022-10-15T22:23:45.064Z,98318.38
2022-10-15T22:26:13.667Z,98309.72
2022-10-15T22:28:42.285Z,98315.59
2022-10-15T22:31:13.040Z,98325.75
2022-10-15T22:33:41.948Z,98318.25
2022-10-15T22:36:16.433Z,98311.56
2022-10-15T22:38:46.352Z,98321.81
2022-10-15T22:41:15.418Z,98322.16
2022-10-15T22:43:43.554Z,98315.31
2022-10-15T22:46:12.106Z,98327.16
2022-10-15T22:48:41.674Z,98331.78
2022-10-15T22:51:11.759Z,98327.94
2022-10-15T22:53:41.578Z,98325.88
2022-10-15T22:56:12.635Z,98324.44
2022-10-15T22:58:40.802Z,98332.94
2022-10-15T23:01:11.100Z,98329.22
2022-10-15T23:03:39.822Z,98338.00
2022-10-15T23:06:08.661Z,98328.22
2022-10-15T23:08:37.238Z,98330.28
2022-10-15T23:11:11.967Z,98330.44
2022-10-15T23:13:40.897Z,98339.97
2022-10-15T23:16:12.057Z,98339.09
2022-10-15T23:18:40.982Z,98342.09
2022-10-15T23:21:13.849Z,98339.34
2022-10-15T23:23:42.009Z,98341.03
2022-10-15T23:26:12.516Z,98342.03
2022-10-15T23:28:40.684Z,98334.28
2022-10-15T23:31:12.603Z,98334.22
2022-10-15T23:33:40.594Z,98336.22
2022-10-15T23:36:09.150Z,98344.59
2022-10-15T23:38:37.344Z,98353.56
2022-10-15T23:41:07.295Z,98352.28
2022-10-15T23:43:36.708Z,98352.81
2022-10-15T23:46:05.021Z,98355.38
2022-10-15T23:48:33.145Z,98354.56
2022-10-15T23:51:03.517Z,98359.88
2022-10-15T23:53:34.007Z,98360.00
2022-10-15T23:56:03.082Z,98358.13
2022-10-15T23:58:32.287Z,98369.69
